createdAt,value
2018-08-27T04:53:13.274Z,2.30
2018-08-27T04:55:45.793Z,2.60
2018-08-27T04:58:18.226Z,2.30
2018-08-27T05:00:50.632Z,2.50
2018-08-27T05:03:23.073Z,2.63
2018-08-27T05:05:55.425Z,2.40
2018-08-27T05:08:27.751Z,2.40
2018-08-27T05:11:00.120Z,2.40
2018-08-27T05:13:33.485Z,2.60
2018-08-27T05:16:05.808Z,2.40
2018-08-27T05:18:38.159Z,2.50
2018-08-27T05:21:10.505Z,2.70
2018-08-27T05:23:42.863Z,2.17
2018-08-27T05:26:15.217Z,2.40
2018-08-27T05:28:47.552Z,2.40
2018-08-27T05:31:20.073Z,2.30
2018-08-27T05:33:52.360Z,2.37
2018-08-27T05:36:29.655Z,2.00
2018-08-27T05:39:01.985Z,2.10
2018-08-27T05:41:34.341Z,1.97
2018-08-27T05:44:06.696Z,2.20
2018-08-27T05:46:39.048Z,2.03
2018-08-27T05:49:11.420Z,1.70
2018-08-27T05:51:43.794Z,1.80
2018-08-27T05:54:16.161Z,3.23
2018-08-27T05:56:48.584Z,2.40
2018-08-27T05:59:20.916Z,1.80
2018-08-27T06:01:53.290Z,1.80
2018-08-27T06:04:25.594Z,1.60
2018-08-27T06:06:57.941Z,2.00
2018-08-27T06:09:30.267Z,2.07
2018-08-27T06:12:02.632Z,1.70
2018-08-27T06:14:35.070Z,1.93
2018-08-27T06:17:08.278Z,1.90
2018-08-27T06:19:40.524Z,1.90
2018-08-27T06:22:12.980Z,2.07
2018-08-27T06:24:45.197Z,2.17
2018-08-27T06:27:17.646Z,1.63
2018-08-27T06:29:49.976Z,1.90
2018-08-27T06:32:22.536Z,1.67
2018-08-27T06:34:55.501Z,3.10
2018-08-27T06:37:27.858Z,1.90
2018-08-27T06:40:00.221Z,1.73
2018-08-27T06:42:32.556Z,1.50
2018-08-27T06:45:05.435Z,1.50
2018-08-27T06:47:37.786Z,1.70
2018-08-27T06:50:10.101Z,1.83
2018-08-27T06:52:42.427Z,2.17
2018-08-27T06:55:14.748Z,2.33
2018-08-27T06:57:47.085Z,3.07
2018-08-27T07:00:19.404Z,1.93
2018-08-27T07:02:51.731Z,2.10
2018-08-27T07:05:24.096Z,2.07
2018-08-27T07:07:56.427Z,1.93
2018-08-27T07:10:28.748Z,1.80
2018-08-27T07:13:02.164Z,1.73
2018-08-27T07:15:34.493Z,1.70
2018-08-27T07:18:06.844Z,1.97
2018-08-27T07:20:39.155Z,1.97
2018-08-27T07:23:11.561Z,2.30
2018-08-27T07:25:43.885Z,1.60
2018-08-27T07:28:16.246Z,1.60
2018-08-27T07:30:48.552Z,1.70
2018-08-27T07:33:20.902Z,1.93
2018-08-27T07:35:53.315Z,1.40
2018-08-27T07:38:25.632Z,1.43
2018-08-27T07:40:57.961Z,1.40
2018-08-27T07:43:30.297Z,1.93
2018-08-27T07:46:02.735Z,1.77
2018-08-27T07:48:35.055Z,1.27
2018-08-27T07:51:07.372Z,1.07
2018-08-27T07:53:39.684Z,1.30
2018-08-27T07:56:12.006Z,1.23
2018-08-27T07:58:44.361Z,1.30
2018-08-27T08:01:16.660Z,2.20
2018-08-27T08:03:48.993Z,1.10
2018-08-27T08:06:21.299Z,1.10
2018-08-27T08:08:53.623Z,1.10
2018-08-27T08:11:25.922Z,1.37
2018-08-27T08:13:58.265Z,1.17
2018-08-27T08:16:30.572Z,1.20
2018-08-27T08:19:04.225Z,1.10
2018-08-27T08:21:36.531Z,1.27
2018-08-27T08:24:08.997Z,1.50
2018-08-27T08:26:41.348Z,1.30
2018-08-27T08:29:13.680Z,1.10
2018-08-27T08:31:46.009Z,1.40
2018-08-27T08:34:18.332Z,1.20
2018-08-27T08:36:50.644Z,1.30
2018-08-27T08:39:22.970Z,1.27
2018-08-27T08:41:55.290Z,1.10
2018-08-27T08:44:27.622Z,1.20
2018-08-27T08:46:59.932Z,1.20
2018-08-27T08:49:32.254Z,1.20
2018-08-27T08:52:05.078Z,1.40
2018-08-27T08:54:37.400Z,1.30
2018-08-27T08:57:09.748Z,1.30
2018-08-27T08:59:42.091Z,1.20
2018-08-27T09:02:14.669Z,1.10
2018-08-27T09:04:47.017Z,1.10
2018-08-27T09:07:19.324Z,1.13
2018-08-27T09:09:51.681Z,1.23
2018-08-27T09:12:24.444Z,1.10
2018-08-27T09:14:56.762Z,1.37
2018-08-27T09:17:29.091Z,1.10
2018-08-27T09:20:03.413Z,1.40
2018-08-27T09:22:35.744Z,1.30
2018-08-27T09:25:08.085Z,1.50
2018-08-27T09:27:40.396Z,1.30
2018-08-27T09:30:12.774Z,1.00
2018-08-27T09:32:45.096Z,1.20
2018-08-27T09:35:17.445Z,1.40
2018-08-27T09:37:49.773Z,1.67
2018-08-27T09:40:22.117Z,1.10
2018-08-27T09:42:54.438Z,2.97
2018-08-27T09:45:26.800Z,3.03
2018-08-27T09:47:59.112Z,1.40
2018-08-27T09:50:31.483Z,1.87
2018-08-27T09:53:03.811Z,1.40
2018-08-27T09:55:36.149Z,1.60
2018-08-27T09:58:08.464Z,1.40
2018-08-27T10:00:40.788Z,1.62
2018-08-27T10:03:13.124Z,1.30
2018-08-27T10:05:45.458Z,1.65
2018-08-27T10:08:17.767Z,1.77
2018-08-27T10:10:50.115Z,1.60
2018-08-27T10:13:22.435Z,1.60
2018-08-27T10:15:54.766Z,1.90
2018-08-27T10:18:27.098Z,1.70
2018-08-27T10:20:59.437Z,2.10
2018-08-27T10:23:31.748Z,2.70
2018-08-27T10:26:04.140Z,2.45
2018-08-27T10:28:36.472Z,2.52
2018-08-27T10:31:08.773Z,2.87
2018-08-27T10:33:41.100Z,3.27
2018-08-27T10:36:13.439Z,3.58
2018-08-27T10:38:45.765Z,5.10
2018-08-27T10:41:18.100Z,6.60
2018-08-27T10:43:50.425Z,5.33
2018-08-27T10:46:22.756Z,6.65
2018-08-27T10:48:55.089Z,6.85
2018-08-27T10:51:27.432Z,7.72
2018-08-27T10:53:59.764Z,10.05
2018-08-27T10:56:32.108Z,16.40
2018-08-27T10:59:04.447Z,15.23
2018-08-27T11:01:36.807Z,18.87
2018-08-27T11:04:09.134Z,18.32
2018-08-27T11:06:41.593Z,14.63
2018-08-27T11:09:13.896Z,12.45
2018-08-27T11:11:46.257Z,9.10
2018-08-27T11:14:18.568Z,9.68
2018-08-27T11:16:50.911Z,8.03
2018-08-27T11:19:23.287Z,9.15
2018-08-27T11:21:55.628Z,9.58
2018-08-27T11:24:28.091Z,9.30
2018-08-27T11:27:00.428Z,8.98
2018-08-27T11:29:33.004Z,9.60
2018-08-27T11:32:05.548Z,8.50
2018-08-27T11:34:37.878Z,8.05
2018-08-27T11:37:10.209Z,8.33
2018-08-27T11:39:42.531Z,7.22
2018-08-27T11:42:14.886Z,7.62
2018-08-27T11:44:47.376Z,5.67
2018-08-27T11:47:19.713Z,6.35
2018-08-27T11:49:52.060Z,5.97
2018-08-27T11:52:24.410Z,5.45
2018-08-27T11:54:56.805Z,5.35
2018-08-27T11:57:29.300Z,5.33
2018-08-27T12:00:01.674Z,6.12
2018-08-27T12:02:34.312Z,5.47
2018-08-27T12:05:06.788Z,5.28
2018-08-27T12:07:39.132Z,5.30
2018-08-27T12:10:11.476Z,5.20
2018-08-27T12:12:43.792Z,5.08
2018-08-27T12:15:16.103Z,5.37
2018-08-27T12:17:48.452Z,5.70
2018-08-27T12:20:20.764Z,5.28
2018-08-27T12:22:53.317Z,5.15
2018-08-27T12:25:25.729Z,5.05
2018-08-27T12:27:58.052Z,5.35
2018-08-27T12:30:30.376Z,5.55
2018-08-27T12:33:02.704Z,5.28
2018-08-27T12:35:35.042Z,5.47
2018-08-27T12:38:07.367Z,5.50
2018-08-27T12:40:39.730Z,5.20
2018-08-27T12:43:12.031Z,5.20
2018-08-27T12:45:44.498Z,5.40
2018-08-27T12:48:16.851Z,5.45
2018-08-27T12:50:49.194Z,5.55
2018-08-27T12:53:21.496Z,5.17
2018-08-27T12:55:53.877Z,5.33
2018-08-27T12:58:26.221Z,5.28
2018-08-27T13:00:58.560Z,5.40
2018-08-27T13:03:30.965Z,5.12
2018-08-27T13:06:03.302Z,5.37
2018-08-27T13:08:35.685Z,4.95
2018-08-27T13:11:08.001Z,5.30
2018-08-27T13:13:40.344Z,5.37
2018-08-27T13:16:12.652Z,5.20
2018-08-27T13:18:44.992Z,4.87
2018-08-27T13:21:17.366Z,5.40
2018-08-27T13:23:49.773Z,4.90
2018-08-27T13:26:22.132Z,4.65
2018-08-27T13:28:54.473Z,5.55
2018-08-27T13:31:26.920Z,5.28
2018-08-27T13:33:59.169Z,5.00
2018-08-27T13:36:31.485Z,4.77
2018-08-27T13:39:05.891Z,5.25
2018-08-27T13:41:38.245Z,5.60
2018-08-27T13:44:10.616Z,4.35
2018-08-27T13:46:42.961Z,4.67
2018-08-27T13:49:15.381Z,4.20
2018-08-27T13:51:47.705Z,4.72
2018-08-27T13:54:20.032Z,5.20
2018-08-27T13:56:52.467Z,4.75
2018-08-27T13:59:24.796Z,4.25
2018-08-27T14:01:57.107Z,4.85
2018-08-27T14:04:29.432Z,4.33
2018-08-27T14:07:01.766Z,4.10
2018-08-27T14:09:34.259Z,4.20
2018-08-27T14:12:06.717Z,4.22
2018-08-27T14:14:39.062Z,4.50
2018-08-27T14:17:11.360Z,4.40
2018-08-27T14:19:43.789Z,4.00
2018-08-27T14:22:16.037Z,3.80
2018-08-27T14:24:48.363Z,4.50
2018-08-27T14:27:21.733Z,4.47
2018-08-27T14:29:54.135Z,4.90
2018-08-27T14:32:26.485Z,4.20
2018-08-27T14:34:58.815Z,4.20
2018-08-27T14:37:31.204Z,4.17
2018-08-27T14:40:03.649Z,4.13
2018-08-27T14:42:36.007Z,4.20
2018-08-27T14:45:08.333Z,3.80
2018-08-27T14:47:40.625Z,4.22
2018-08-27T14:50:12.964Z,3.62
2018-08-27T14:52:45.532Z,4.00
2018-08-27T14:55:17.982Z,4.33
2018-08-27T14:57:50.305Z,4.62
2018-08-27T15:00:22.657Z,4.00
2018-08-27T15:02:54.989Z,4.20
2018-08-27T15:05:27.355Z,3.90
2018-08-27T15:07:59.680Z,4.22
2018-08-27T15:10:32.036Z,3.67
2018-08-27T15:13:04.837Z,4.63
2018-08-27T15:15:37.177Z,4.83
2018-08-27T15:18:09.500Z,3.70
2018-08-27T15:20:41.930Z,4.43
2018-08-27T15:23:14.277Z,4.33
2018-08-27T15:25:46.806Z,4.40
2018-08-27T15:28:19.603Z,3.93
2018-08-27T15:30:51.941Z,4.90
2018-08-27T15:33:24.349Z,4.63
2018-08-27T15:35:56.693Z,4.03
2018-08-27T15:38:29.343Z,4.30
2018-08-27T15:41:01.601Z,4.20
2018-08-27T15:43:34.008Z,4.20
2018-08-27T15:46:06.296Z,4.27
2018-08-27T15:48:38.644Z,4.10
2018-08-27T15:51:11.019Z,4.23
2018-08-27T15:53:43.324Z,4.50
2018-08-27T15:56:15.696Z,4.30
2018-08-27T15:58:48.017Z,3.73
2018-08-27T16:01:20.373Z,5.80
2018-08-27T16:03:52.693Z,4.90
2018-08-27T16:06:25.133Z,4.17
2018-08-27T16:08:57.640Z,4.70
2018-08-27T16:11:30.189Z,4.03
2018-08-27T16:14:02.558Z,4.90
2018-08-27T16:16:35.023Z,5.08
2018-08-27T16:19:07.423Z,5.67
2018-08-27T16:21:39.933Z,4.33
2018-08-27T16:24:12.317Z,4.70
2018-08-27T16:26:44.666Z,4.47
2018-08-27T16:29:19.069Z,4.80
2018-08-27T16:31:51.490Z,4.60
2018-08-27T16:34:24.599Z,4.30
2018-08-27T16:36:57.026Z,4.37
2018-08-27T16:39:29.421Z,4.23
2018-08-27T16:42:01.701Z,4.43
2018-08-27T16:44:34.121Z,4.33
2018-08-27T16:47:06.489Z,4.73
2018-08-27T16:49:38.815Z,4.67
2018-08-27T16:52:11.280Z,5.30
2018-08-27T16:54:43.701Z,5.77
2018-08-27T16:57:16.056Z,4.67
2018-08-27T16:59:48.387Z,5.17
2018-08-27T17:02:20.748Z,5.00
2018-08-27T17:04:53.060Z,5.30
2018-08-27T17:07:25.405Z,5.90
2018-08-27T17:09:57.743Z,6.70
2018-08-27T17:12:30.144Z,4.17
2018-08-27T17:15:02.489Z,4.50
2018-08-27T17:17:34.817Z,4.07
2018-08-27T17:20:07.491Z,4.60
2018-08-27T17:22:39.799Z,5.00
2018-08-27T17:25:12.120Z,4.97
2018-08-27T17:27:44.438Z,4.30
2018-08-27T17:30:16.744Z,3.97
2018-08-27T17:32:49.067Z,4.23
2018-08-27T17:35:21.384Z,5.07
2018-08-27T17:37:53.737Z,4.23
2018-08-27T17:40:26.061Z,4.43
2018-08-27T17:42:58.404Z,4.03
2018-08-27T17:45:30.806Z,4.53
2018-08-27T17:48:03.117Z,4.53
2018-08-27T17:50:35.424Z,4.23
2018-08-27T17:53:07.777Z,4.67
2018-08-27T17:55:40.202Z,4.23
2018-08-27T17:58:12.651Z,4.37
2018-08-27T18:00:44.891Z,4.23
2018-08-27T18:03:17.493Z,4.27
2018-08-27T18:05:49.751Z,4.03
2018-08-27T18:08:22.142Z,4.77
2018-08-27T18:10:54.441Z,4.67
2018-08-27T18:13:26.792Z,3.97
2018-08-27T18:15:59.115Z,4.53
2018-08-27T18:18:31.456Z,5.13
2018-08-27T18:21:03.864Z,4.83
2018-08-27T18:23:36.176Z,4.27
2018-08-27T18:26:08.501Z,4.87
2018-08-27T18:28:40.963Z,5.43
2018-08-27T18:31:13.653Z,5.40
2018-08-27T18:33:45.980Z,5.30
2018-08-27T18:36:18.307Z,5.10
2018-08-27T18:38:50.659Z,4.43
2018-08-27T18:41:23.007Z,5.50
2018-08-27T18:43:55.341Z,5.00
2018-08-27T18:46:27.648Z,5.70
2018-08-27T18:49:00.152Z,5.70
2018-08-27T18:51:32.498Z,5.90
2018-08-27T18:54:05.017Z,5.73
2018-08-27T18:56:37.471Z,6.30
2018-08-27T18:59:10.813Z,7.70
2018-08-27T19:01:43.138Z,6.87
2018-08-27T19:04:15.483Z,5.70
2018-08-27T19:06:47.843Z,5.70
2018-08-27T19:09:20.229Z,6.30
2018-08-27T19:11:52.556Z,6.03
2018-08-27T19:14:24.923Z,6.57
2018-08-27T19:16:57.240Z,5.60
2018-08-27T19:19:29.717Z,6.33
2018-08-27T19:22:02.061Z,5.73
2018-08-27T19:24:34.446Z,6.60
2018-08-27T19:27:06.982Z,6.00
2018-08-27T19:29:39.468Z,6.03
2018-08-27T19:32:12.516Z,6.27
2018-08-27T19:34:44.996Z,5.97
2018-08-27T19:37:17.398Z,7.83
2018-08-27T19:39:49.621Z,6.87
2018-08-27T19:42:21.993Z,6.30
2018-08-27T19:44:54.592Z,6.07
2018-08-27T19:47:26.920Z,6.40
2018-08-27T19:49:59.356Z,6.03
2018-08-27T19:52:31.772Z,6.10
2018-08-27T19:55:04.206Z,5.67
2018-08-27T19:57:36.686Z,5.90
2018-08-27T20:00:08.981Z,5.70
2018-08-27T20:02:41.424Z,5.97
2018-08-27T20:05:13.726Z,5.90
2018-08-27T20:07:46.138Z,5.17
2018-08-27T20:10:18.451Z,5.20
